sensor_id;sensor_type;location;lat;lon;timestamp;temperature;humidity
18823;DHT22;9540;51.550;7.980;2023-11-21T00:02:00;6.90;99.90
18823;DHT22;9540;51.550;7.980;2023-11-21T00:04:28;7.00;99.90
18823;DHT22;9540;51.550;7.980;2023-11-21T00:06:55;7.00;99.90
18823;DHT22;9540;51.550;7.980;2023-11-21T00:09:23;7.00;99.90
18823;DHT22;9540;51.550;7.980;2023-11-21T00:11:50;7.00;99.90
18823;DHT22;9540;51.550;7.980;2023-11-21T00:14:17;7.10;99.90
18823;DHT22;9540;51.550;7.980;2023-11-21T00:16:44;7.10;99.90
18823;DHT22;9540;51.550;7.980;2023-11-21T00:19:12;7.10;99.90
18823;DHT22;9540;51.550;7.980;2023-11-21T00:21:40;7.20;99.90
18823;DHT22;9540;51.550;7.980;2023-11-21T00:24:10;7.10;99.90
18823;DHT22;9540;51.550;7.980;2023-11-21T00:26:39;7.20;99.90
18823;DHT22;9540;51.550;7.980;2023-11-21T00:29:06;7.20;99.90
18823;DHT22;9540;51.550;7.980;2023-11-21T00:31:34;7.30;99.90
18823;DHT22;9540;51.550;7.980;2023-11-21T00:34:02;7.30;99.90
18823;DHT22;9540;51.550;7.980;2023-11-21T00:36:31;7.30;99.90
18823;DHT22;9540;51.550;7.980;2023-11-21T00:38:59;7.30;99.90
18823;DHT22;9540;51.550;7.980;2023-11-21T00:41:29;7.40;99.90
18823;DHT22;9540;51.550;7.980;2023-11-21T00:44:00;7.40;99.90
18823;DHT22;9540;51.550;7.980;2023-11-21T00:46:27;7.40;99.90
18823;DHT22;9540;51.550;7.980;2023-11-21T00:48:54;7.40;99.90
18823;DHT22;9540;51.550;7.980;2023-11-21T00:51:22;7.40;99.90
18823;DHT22;9540;51.550;7.980;2023-11-21T00:53:50;7.40;99.90
18823;DHT22;9540;51.550;7.980;2023-11-21T00:56:18;7.40;99.90
18823;DHT22;9540;51.550;7.980;2023-11-21T00:58:45;7.50;99.90
18823;DHT22;9540;51.550;7.980;2023-11-21T01:01:15;7.50;99.90
18823;DHT22;9540;51.550;7.980;2023-11-21T01:03:42;7.50;99.90
18823;DHT22;9540;51.550;7.980;2023-11-21T01:06:10;7.50;99.90
18823;DHT22;9540;51.550;7.980;2023-11-21T01:08:37;7.50;99.90
18823;DHT22;9540;51.550;7.980;2023-11-21T01:11:05;7.50;99.90
18823;DHT22;9540;51.550;7.980;2023-11-21T01:13:35;7.50;99.90
18823;DHT22;9540;51.550;7.980;2023-11-21T01:16:02;7.50;99.90
18823;DHT22;9540;51.550;7.980;2023-11-21T01:18:30;7.50;99.90
18823;DHT22;9540;51.550;7.980;2023-11-21T01:20:57;7.50;99.90
18823;DHT22;9540;51.550;7.980;2023-11-21T01:23:25;7.50;99.90
18823;DHT22;9540;51.550;7.980;2023-11-21T01:25:52;7.50;99.90
18823;DHT22;9540;51.550;7.980;2023-11-21T01:28:19;7.50;99.90
18823;DHT22;9540;51.550;7.980;2023-11-21T01:30:48;7.60;99.90
18823;DHT22;9540;51.550;7.980;2023-11-21T01:33:15;7.50;99.90
18823;DHT22;9540;51.550;7.980;2023-11-21T01:35:42;7.60;99.90
18823;DHT22;9540;51.550;7.980;2023-11-21T01:38:11;7.60;99.90
18823;DHT22;9540;51.550;7.980;2023-11-21T01:40:39;7.60;99.90
18823;DHT22;9540;51.550;7.980;2023-11-21T01:43:06;7.60;99.90
18823;DHT22;9540;51.550;7.980;2023-11-21T01:45:34;7.60;99.90
18823;DHT22;9540;51.550;7.980;2023-11-21T01:48:03;7.60;99.90
18823;DHT22;9540;51.550;7.980;2023-11-21T01:50:33;7.60;99.90
18823;DHT22;9540;51.550;7.980;2023-11-21T01:53:00;7.60;99.90
18823;DHT22;9540;51.550;7.980;2023-11-21T01:55:29;7.60;99.90
18823;DHT22;9540;51.550;7.980;2023-11-21T01:57:56;7.60;99.90
18823;DHT22;9540;51.550;7.980;2023-11-21T02:00:23;7.60;99.90
18823;DHT22;9540;51.550;7.980;2023-11-21T02:02:51;7.60;99.90
18823;DHT22;9540;51.550;7.980;2023-11-21T02:05:19;7.60;99.90
18823;DHT22;9540;51.550;7.980;2023-11-21T02:07:47;7.60;99.90
18823;DHT22;9540;51.550;7.980;2023-11-21T02:10:14;7.60;99.90
18823;DHT22;9540;51.550;7.980;2023-11-21T02:12:42;7.60;99.90
18823;DHT22;9540;51.550;7.980;2023-11-21T02:15:10;7.70;99.90
18823;DHT22;9540;51.550;7.980;2023-11-21T02:17:45;7.70;99.90
18823;DHT22;9540;51.550;7.980;2023-11-21T02:20:13;7.70;99.90
18823;DHT22;9540;51.550;7.980;2023-11-21T02:22:43;7.70;99.90
18823;DHT22;9540;51.550;7.980;2023-11-21T02:25:12;7.70;99.90
18823;DHT22;9540;51.550;7.980;2023-11-21T02:27:39;7.70;99.90
18823;DHT22;9540;51.550;7.980;2023-11-21T02:30:08;7.70;99.90
18823;DHT22;9540;51.550;7.980;2023-11-21T02:32:39;7.70;99.90
18823;DHT22;9540;51.550;7.980;2023-11-21T02:35:06;7.70;99.90
18823;DHT22;9540;51.550;7.980;2023-11-21T02:37:34;7.70;99.90
18823;DHT22;9540;51.550;7.980;2023-11-21T02:40:01;7.70;99.90
18823;DHT22;9540;51.550;7.980;2023-11-21T02:42:32;7.60;99.90
18823;DHT22;9540;51.550;7.980;2023-11-21T02:44:59;7.70;99.90
18823;DHT22;9540;51.550;7.980;2023-11-21T02:47:27;7.60;99.90
18823;DHT22;9540;51.550;7.980;2023-11-21T02:49:54;7.60;99.90
18823;DHT22;9540;51.550;7.980;2023-11-21T02:52:22;7.60;99.90
18823;DHT22;9540;51.550;7.980;2023-11-21T02:54:49;7.60;99.90
18823;DHT22;9540;51.550;7.980;2023-11-21T02:57:17;7.60;99.90
18823;DHT22;9540;51.550;7.980;2023-11-21T02:59:45;7.60;99.90
18823;DHT22;9540;51.550;7.980;2023-11-21T03:02:13;7.60;99.90
18823;DHT22;9540;51.550;7.980;2023-11-21T03:04:44;7.60;99.90
18823;DHT22;9540;51.550;7.980;2023-11-21T03:07:12;7.60;99.90
18823;DHT22;9540;51.550;7.980;2023-11-21T03:09:39;7.60;99.90
18823;DHT22;9540;51.550;7.980;2023-11-21T03:12:07;7.60;99.90
18823;DHT22;9540;51.550;7.980;2023-11-21T03:14:34;7.60;99.90
18823;DHT22;9540;51.550;7.980;2023-11-21T03:17:03;7.60;99.90
18823;DHT22;9540;51.550;7.980;2023-11-21T03:19:31;7.60;99.90
18823;DHT22;9540;51.550;7.980;2023-11-21T03:21:58;7.60;99.90
18823;DHT22;9540;51.550;7.980;2023-11-21T03:24:25;7.60;99.90
18823;DHT22;9540;51.550;7.980;2023-11-21T03:26:52;7.60;99.90
18823;DHT22;9540;51.550;7.980;2023-11-21T03:29:19;7.60;99.90
18823;DHT22;9540;51.550;7.980;2023-11-21T03:31:46;7.60;99.90
18823;DHT22;9540;51.550;7.980;2023-11-21T03:34:23;7.60;99.90
18823;DHT22;9540;51.550;7.980;2023-11-21T03:36:50;7.60;99.90
18823;DHT22;9540;51.550;7.980;2023-11-21T03:39:19;7.60;99.90
18823;DHT22;9540;51.550;7.980;2023-11-21T03:41:46;7.60;99.90
18823;DHT22;9540;51.550;7.980;2023-11-21T03:44:13;7.60;99.90
18823;DHT22;9540;51.550;7.980;2023-11-21T03:46:40;7.60;99.90
18823;DHT22;9540;51.550;7.980;2023-11-21T03:49:07;7.70;99.90
18823;DHT22;9540;51.550;7.980;2023-11-21T03:51:36;7.70;99.90
18823;DHT22;9540;51.550;7.980;2023-11-21T03:54:04;7.70;99.90
18823;DHT22;9540;51.550;7.980;2023-11-21T03:56:31;7.70;99.90
18823;DHT22;9540;51.550;7.980;2023-11-21T03:58:58;7.70;99.90
18823;DHT22;9540;51.550;7.980;2023-11-21T04:01:25;7.70;99.90
18823;DHT22;9540;51.550;7.980;2023-11-21T04:03:52;7.70;99.90
18823;DHT22;9540;51.550;7.980;2023-11-21T04:06:19;7.70;99.90
18823;DHT22;9540;51.550;7.980;2023-11-21T04:08:48;7.80;99.90
18823;DHT22;9540;51.550;7.980;2023-11-21T04:11:15;7.80;99.90
18823;DHT22;9540;51.550;7.980;2023-11-21T04:13:42;7.80;99.90
18823;DHT22;9540;51.550;7.980;2023-11-21T04:16:10;7.80;99.90
18823;DHT22;9540;51.550;7.980;2023-11-21T04:18:37;7.80;99.90
18823;DHT22;9540;51.550;7.980;2023-11-21T04:21:05;7.80;99.90
18823;DHT22;9540;51.550;7.980;2023-11-21T04:23:32;7.80;99.90
18823;DHT22;9540;51.550;7.980;2023-11-21T04:26:01;7.80;99.90
18823;DHT22;9540;51.550;7.980;2023-11-21T04:28:29;7.80;99.90
18823;DHT22;9540;51.550;7.980;2023-11-21T04:30:56;7.80;99.90
18823;DHT22;9540;51.550;7.980;2023-11-21T04:33:23;7.90;99.90
18823;DHT22;9540;51.550;7.980;2023-11-21T04:35:51;7.90;99.90
18823;DHT22;9540;51.550;7.980;2023-11-21T04:38:18;7.90;99.90
18823;DHT22;9540;51.550;7.980;2023-11-21T04:40:45;7.90;99.90
18823;DHT22;9540;51.550;7.980;2023-11-21T04:43:14;7.90;99.90
18823;DHT22;9540;51.550;7.980;2023-11-21T04:45:41;7.90;99.90
18823;DHT22;9540;51.550;7.980;2023-11-21T04:48:08;7.90;99.90
18823;DHT22;9540;51.550;7.980;2023-11-21T04:50:36;7.90;99.90
18823;DHT22;9540;51.550;7.980;2023-11-21T04:53:03;7.90;99.90
18823;DHT22;9540;51.550;7.980;2023-11-21T04:55:31;7.90;99.90
18823;DHT22;9540;51.550;7.980;2023-11-21T04:57:58;8.00;99.90
18823;DHT22;9540;51.550;7.980;2023-11-21T05:00:26;8.00;99.90
18823;DHT22;9540;51.550;7.980;2023-11-21T05:02:53;7.90;99.90
18823;DHT22;9540;51.550;7.980;2023-11-21T05:05:20;8.00;99.90
18823;DHT22;9540;51.550;7.980;2023-11-21T05:07:48;8.00;99.90
18823;DHT22;9540;51.550;7.980;2023-11-21T05:10:15;8.00;99.90
18823;DHT22;9540;51.550;7.980;2023-11-21T05:12:43;7.90;99.90
18823;DHT22;9540;51.550;7.980;2023-11-21T05:15:13;7.90;99.90
18823;DHT22;9540;51.550;7.980;2023-11-21T05:17:43;7.90;99.90
18823;DHT22;9540;51.550;7.980;2023-11-21T05:20:11;7.90;99.90
18823;DHT22;9540;51.550;7.980;2023-11-21T05:22:39;7.90;99.90
18823;DHT22;9540;51.550;7.980;2023-11-21T05:25:08;7.90;99.90
18823;DHT22;9540;51.550;7.980;2023-11-21T05:27:35;7.90;99.90
18823;DHT22;9540;51.550;7.980;2023-11-21T05:30:03;7.80;99.90
18823;DHT22;9540;51.550;7.980;2023-11-21T05:32:30;7.80;99.90
18823;DHT22;9540;51.550;7.980;2023-11-21T05:34:59;7.80;99.90
18823;DHT22;9540;51.550;7.980;2023-11-21T05:37:26;7.80;99.90
18823;DHT22;9540;51.550;7.980;2023-11-21T05:39:54;7.80;99.90
18823;DHT22;9540;51.550;7.980;2023-11-21T05:42:22;7.70;99.90
18823;DHT22;9540;51.550;7.980;2023-11-21T05:44:50;7.70;99.90
18823;DHT22;9540;51.550;7.980;2023-11-21T05:47:17;7.70;99.90
18823;DHT22;9540;51.550;7.980;2023-11-21T05:49:44;7.60;99.90
18823;DHT22;9540;51.550;7.980;2023-11-21T05:52:17;7.60;99.90
18823;DHT22;9540;51.550;7.980;2023-11-21T05:54:44;7.60;99.90
18823;DHT22;9540;51.550;7.980;2023-11-21T05:57:11;7.60;99.90
18823;DHT22;9540;51.550;7.980;2023-11-21T05:59:38;7.60;99.90
18823;DHT22;9540;51.550;7.980;2023-11-21T06:02:06;7.60;99.90
18823;DHT22;9540;51.550;7.980;2023-11-21T06:04:33;7.60;99.90
18823;DHT22;9540;51.550;7.980;2023-11-21T06:07:00;7.60;99.90
18823;DHT22;9540;51.550;7.980;2023-11-21T06:09:29;7.60;99.90
18823;DHT22;9540;51.550;7.980;2023-11-21T06:11:56;7.60;99.90
18823;DHT22;9540;51.550;7.980;2023-11-21T06:14:23;7.60;99.90
18823;DHT22;9540;51.550;7.980;2023-11-21T06:16:50;7.60;99.90
18823;DHT22;9540;51.550;7.980;2023-11-21T06:19:18;7.60;99.90
18823;DHT22;9540;51.550;7.980;2023-11-21T06:21:45;7.60;99.90
18823;DHT22;9540;51.550;7.980;2023-11-21T06:24:13;7.60;99.90
18823;DHT22;9540;51.550;7.980;2023-11-21T06:26:42;7.60;99.90
18823;DHT22;9540;51.550;7.980;2023-11-21T06:29:09;7.60;99.90
18823;DHT22;9540;51.550;7.980;2023-11-21T06:31:37;7.60;99.90
18823;DHT22;9540;51.550;7.980;2023-11-21T06:34:06;7.70;99.90
18823;DHT22;9540;51.550;7.980;2023-11-21T06:36:34;7.70;99.90
18823;DHT22;9540;51.550;7.980;2023-11-21T06:39:02;7.70;99.90
18823;DHT22;9540;51.550;7.980;2023-11-21T06:41:32;7.70;99.90
18823;DHT22;9540;51.550;7.980;2023-11-21T06:44:01;7.80;99.90
18823;DHT22;9540;51.550;7.980;2023-11-21T06:46:28;7.80;99.90
18823;DHT22;9540;51.550;7.980;2023-11-21T06:48:55;7.80;99.90
18823;DHT22;9540;51.550;7.980;2023-11-21T06:51:22;7.80;99.90
18823;DHT22;9540;51.550;7.980;2023-11-21T06:53:49;7.80;99.90
18823;DHT22;9540;51.550;7.980;2023-11-21T06:56:17;7.80;99.90
18823;DHT22;9540;51.550;7.980;2023-11-21T06:58:44;7.80;99.90
18823;DHT22;9540;51.550;7.980;2023-11-21T07:01:17;7.80;99.90
18823;DHT22;9540;51.550;7.980;2023-11-21T07:03:44;7.90;99.90
18823;DHT22;9540;51.550;7.980;2023-11-21T07:06:11;7.90;99.90
18823;DHT22;9540;51.550;7.980;2023-11-21T07:08:38;7.90;99.90
18823;DHT22;9540;51.550;7.980;2023-11-21T07:11:05;7.90;99.90
18823;DHT22;9540;51.550;7.980;2023-11-21T07:13:32;7.90;99.90
18823;DHT22;9540;51.550;7.980;2023-11-21T07:16:00;8.00;99.90
18823;DHT22;9540;51.550;7.980;2023-11-21T07:18:28;7.90;99.90
18823;DHT22;9540;51.550;7.980;2023-11-21T07:20:55;7.90;99.90
18823;DHT22;9540;51.550;7.980;2023-11-21T07:23:24;7.90;99.90
18823;DHT22;9540;51.550;7.980;2023-11-21T07:25:51;7.90;99.90
18823;DHT22;9540;51.550;7.980;2023-11-21T07:28:18;7.80;99.90
18823;DHT22;9540;51.550;7.980;2023-11-21T07:30:45;7.80;99.90
18823;DHT22;9540;51.550;7.980;2023-11-21T07:33:13;7.80;99.90
18823;DHT22;9540;51.550;7.980;2023-11-21T07:35:42;7.90;99.90
18823;DHT22;9540;51.550;7.980;2023-11-21T07:38:09;7.90;99.90
18823;DHT22;9540;51.550;7.980;2023-11-21T07:40:36;7.90;99.90
18823;DHT22;9540;51.550;7.980;2023-11-21T07:43:03;7.90;99.90
18823;DHT22;9540;51.550;7.980;2023-11-21T07:45:31;7.90;99.90
18823;DHT22;9540;51.550;7.980;2023-11-21T07:47:58;8.00;99.90
18823;DHT22;9540;51.550;7.980;2023-11-21T07:50:26;8.00;99.90
18823;DHT22;9540;51.550;7.980;2023-11-21T07:52:55;8.00;99.90
18823;DHT22;9540;51.550;7.980;2023-11-21T07:55:22;8.00;99.90
18823;DHT22;9540;51.550;7.980;2023-11-21T07:57:50;8.00;99.90
18823;DHT22;9540;51.550;7.980;2023-11-21T08:00:18;8.10;99.90
18823;DHT22;9540;51.550;7.980;2023-11-21T08:02:46;8.10;99.90
18823;DHT22;9540;51.550;7.980;2023-11-21T08:05:14;8.20;99.90
18823;DHT22;9540;51.550;7.980;2023-11-21T08:07:41;8.20;99.90
18823;DHT22;9540;51.550;7.980;2023-11-21T08:10:10;8.20;99.90
18823;DHT22;9540;51.550;7.980;2023-11-21T08:12:37;8.20;99.90
18823;DHT22;9540;51.550;7.980;2023-11-21T08:15:06;8.20;99.90
18823;DHT22;9540;51.550;7.980;2023-11-21T08:17:33;8.20;99.90
18823;DHT22;9540;51.550;7.980;2023-11-21T08:20:01;8.30;99.90
18823;DHT22;9540;51.550;7.980;2023-11-21T08:22:29;8.30;99.90
18823;DHT22;9540;51.550;7.980;2023-11-21T08:24:57;8.40;99.90
18823;DHT22;9540;51.550;7.980;2023-11-21T08:27:25;8.40;99.90
18823;DHT22;9540;51.550;7.980;2023-11-21T08:29:52;8.40;99.90
18823;DHT22;9540;51.550;7.980;2023-11-21T08:32:20;8.50;99.90
18823;DHT22;9540;51.550;7.980;2023-11-21T08:34:47;8.50;99.90
18823;DHT22;9540;51.550;7.980;2023-11-21T08:37:16;8.50;99.90
18823;DHT22;9540;51.550;7.980;2023-11-21T08:39:44;8.60;99.90
18823;DHT22;9540;51.550;7.980;2023-11-21T08:42:11;8.60;99.90
18823;DHT22;9540;51.550;7.980;2023-11-21T08:44:40;8.70;99.90
18823;DHT22;9540;51.550;7.980;2023-11-21T08:47:07;8.70;99.90
18823;DHT22;9540;51.550;7.980;2023-11-21T08:49:34;8.70;99.90
18823;DHT22;9540;51.550;7.980;2023-11-21T08:52:02;8.80;99.90
18823;DHT22;9540;51.550;7.980;2023-11-21T08:54:30;8.90;99.90
18823;DHT22;9540;51.550;7.980;2023-11-21T08:56:57;8.90;99.90
18823;DHT22;9540;51.550;7.980;2023-11-21T08:59:24;8.90;99.90
18823;DHT22;9540;51.550;7.980;2023-11-21T09:01:53;8.90;99.90
18823;DHT22;9540;51.550;7.980;2023-11-21T09:04:20;8.90;99.90
18823;DHT22;9540;51.550;7.980;2023-11-21T09:06:47;8.90;99.90
18823;DHT22;9540;51.550;7.980;2023-11-21T09:09:14;8.90;99.90
18823;DHT22;9540;51.550;7.980;2023-11-21T09:11:41;8.90;99.90
18823;DHT22;9540;51.550;7.980;2023-11-21T09:14:10;8.90;99.90
18823;DHT22;9540;51.550;7.980;2023-11-21T09:16:38;8.90;99.90
18823;DHT22;9540;51.550;7.980;2023-11-21T09:19:07;8.90;99.90
18823;DHT22;9540;51.550;7.980;2023-11-21T09:21:34;8.90;99.90
18823;DHT22;9540;51.550;7.980;2023-11-21T09:24:01;8.90;99.90
18823;DHT22;9540;51.550;7.980;2023-11-21T09:26:29;8.90;99.90
18823;DHT22;9540;51.550;7.980;2023-11-21T09:28:56;8.90;99.90
18823;DHT22;9540;51.550;7.980;2023-11-21T09:31:23;9.00;99.90
18823;DHT22;9540;51.550;7.980;2023-11-21T09:33:50;9.00;99.90
18823;DHT22;9540;51.550;7.980;2023-11-21T09:36:19;9.00;99.90
18823;DHT22;9540;51.550;7.980;2023-11-21T09:38:47;9.00;99.90
18823;DHT22;9540;51.550;7.980;2023-11-21T09:41:21;8.90;99.90
18823;DHT22;9540;51.550;7.980;2023-11-21T09:43:54;9.00;99.90
18823;DHT22;9540;51.550;7.980;2023-11-21T09:46:26;9.00;99.90
18823;DHT22;9540;51.550;7.980;2023-11-21T09:48:57;9.00;99.90
18823;DHT22;9540;51.550;7.980;2023-11-21T09:51:30;9.00;99.90
18823;DHT22;9540;51.550;7.980;2023-11-21T09:53:59;9.00;99.90
18823;DHT22;9540;51.550;7.980;2023-11-21T09:56:33;9.00;99.90
18823;DHT22;9540;51.550;7.980;2023-11-21T09:59:01;9.00;99.90
18823;DHT22;9540;51.550;7.980;2023-11-21T10:01:33;8.90;99.90
18823;DHT22;9540;51.550;7.980;2023-11-21T10:04:01;8.90;99.90
18823;DHT22;9540;51.550;7.980;2023-11-21T10:06:31;8.90;99.90
18823;DHT22;9540;51.550;7.980;2023-11-21T10:08:59;8.80;99.90
18823;DHT22;9540;51.550;7.980;2023-11-21T10:11:27;8.80;99.90
18823;DHT22;9540;51.550;7.980;2023-11-21T10:13:58;8.80;99.90
18823;DHT22;9540;51.550;7.980;2023-11-21T10:16:26;8.70;99.90
18823;DHT22;9540;51.550;7.980;2023-11-21T10:18:55;8.70;99.90
18823;DHT22;9540;51.550;7.980;2023-11-21T10:21:23;8.70;99.90
18823;DHT22;9540;51.550;7.980;2023-11-21T10:23:53;8.60;99.90
18823;DHT22;9540;51.550;7.980;2023-11-21T10:26:22;8.60;99.90
18823;DHT22;9540;51.550;7.980;2023-11-21T10:29:00;8.50;99.90
18823;DHT22;9540;51.550;7.980;2023-11-21T10:31:29;8.60;99.90
18823;DHT22;9540;51.550;7.980;2023-11-21T10:34:10;8.60;99.90
18823;DHT22;9540;51.550;7.980;2023-11-21T10:36:37;8.60;99.90
18823;DHT22;9540;51.550;7.980;2023-11-21T10:39:09;8.50;99.90
18823;DHT22;9540;51.550;7.980;2023-11-21T10:41:36;8.50;99.90
18823;DHT22;9540;51.550;7.980;2023-11-21T10:44:05;8.50;99.90
18823;DHT22;9540;51.550;7.980;2023-11-21T10:46:35;8.50;99.90
18823;DHT22;9540;51.550;7.980;2023-11-21T10:49:02;8.60;99.90
18823;DHT22;9540;51.550;7.980;2023-11-21T10:51:29;8.60;99.90
18823;DHT22;9540;51.550;7.980;2023-11-21T10:53:56;8.60;99.90
18823;DHT22;9540;51.550;7.980;2023-11-21T10:56:27;8.70;99.90
18823;DHT22;9540;51.550;7.980;2023-11-21T10:58:56;8.60;99.90
18823;DHT22;9540;51.550;7.980;2023-11-21T11:01:26;8.70;99.90
18823;DHT22;9540;51.550;7.980;2023-11-21T11:03:55;8.70;99.90
18823;DHT22;9540;51.550;7.980;2023-11-21T11:06:24;8.70;99.90
18823;DHT22;9540;51.550;7.980;2023-11-21T11:08:56;8.80;99.90
18823;DHT22;9540;51.550;7.980;2023-11-21T11:11:23;8.80;99.90
18823;DHT22;9540;51.550;7.980;2023-11-21T11:13:53;8.80;99.90
18823;DHT22;9540;51.550;7.980;2023-11-21T11:16:20;8.90;99.90
18823;DHT22;9540;51.550;7.980;2023-11-21T11:18:48;8.80;99.90
18823;DHT22;9540;51.550;7.980;2023-11-21T11:21:25;8.90;99.90
18823;DHT22;9540;51.550;7.980;2023-11-21T11:24:06;8.90;99.90
18823;DHT22;9540;51.550;7.980;2023-11-21T11:26:47;8.90;99.90
18823;DHT22;9540;51.550;7.980;2023-11-21T11:29:29;8.90;99.90
18823;DHT22;9540;51.550;7.980;2023-11-21T11:32:06;8.90;99.90
18823;DHT22;9540;51.550;7.980;2023-11-21T11:34:41;9.00;99.90
18823;DHT22;9540;51.550;7.980;2023-11-21T11:37:11;8.90;99.90
18823;DHT22;9540;51.550;7.980;2023-11-21T11:39:40;8.90;99.90
18823;DHT22;9540;51.550;7.980;2023-11-21T11:42:08;8.90;99.90
18823;DHT22;9540;51.550;7.980;2023-11-21T11:44:50;8.90;99.90
18823;DHT22;9540;51.550;7.980;2023-11-21T11:47:23;8.90;99.90
18823;DHT22;9540;51.550;7.980;2023-11-21T11:50:04;8.90;99.90
18823;DHT22;9540;51.550;7.980;2023-11-21T11:52:38;8.90;99.90
18823;DHT22;9540;51.550;7.980;2023-11-21T11:55:07;8.90;99.90
18823;DHT22;9540;51.550;7.980;2023-11-21T11:57:37;8.80;99.90
18823;DHT22;9540;51.550;7.980;2023-11-21T12:00:17;8.80;99.90
18823;DHT22;9540;51.550;7.980;2023-11-21T12:02:47;8.80;99.90
18823;DHT22;9540;51.550;7.980;2023-11-21T12:05:16;8.80;99.90
18823;DHT22;9540;51.550;7.980;2023-11-21T12:07:48;8.80;99.90
18823;DHT22;9540;51.550;7.980;2023-11-21T12:10:18;8.80;99.90
18823;DHT22;9540;51.550;7.980;2023-11-21T12:12:47;8.80;99.90
18823;DHT22;9540;51.550;7.980;2023-11-21T12:15:16;8.80;99.90
18823;DHT22;9540;51.550;7.980;2023-11-21T12:17:44;8.80;99.90
18823;DHT22;9540;51.550;7.980;2023-11-21T12:20:12;8.70;99.90
18823;DHT22;9540;51.550;7.980;2023-11-21T12:22:45;8.70;99.90
18823;DHT22;9540;51.550;7.980;2023-11-21T12:25:15;8.70;99.90
18823;DHT22;9540;51.550;7.980;2023-11-21T12:27:45;8.60;99.90
18823;DHT22;9540;51.550;7.980;2023-11-21T12:30:13;8.70;99.90
18823;DHT22;9540;51.550;7.980;2023-11-21T12:32:43;8.60;99.90
18823;DHT22;9540;51.550;7.980;2023-11-21T12:35:12;8.60;99.90
18823;DHT22;9540;51.550;7.980;2023-11-21T12:37:40;8.70;99.90
18823;DHT22;9540;51.550;7.980;2023-11-21T12:40:09;8.60;99.90
18823;DHT22;9540;51.550;7.980;2023-11-21T12:42:39;8.70;99.90
18823;DHT22;9540;51.550;7.980;2023-11-21T12:45:18;8.60;99.90
18823;DHT22;9540;51.550;7.980;2023-11-21T12:47:48;8.70;99.90
18823;DHT22;9540;51.550;7.980;2023-11-21T12:50:19;8.70;99.90
18823;DHT22;9540;51.550;7.980;2023-11-21T12:52:50;8.70;99.90
18823;DHT22;9540;51.550;7.980;2023-11-21T12:55:17;8.70;99.90
18823;DHT22;9540;51.550;7.980;2023-11-21T12:57:49;8.70;99.90
18823;DHT22;9540;51.550;7.980;2023-11-21T13:00:18;8.70;99.90
18823;DHT22;9540;51.550;7.980;2023-11-21T13:02:55;8.70;99.90
18823;DHT22;9540;51.550;7.980;2023-11-21T13:05:25;8.80;99.90
18823;DHT22;9540;51.550;7.980;2023-11-21T13:07:52;8.80;99.90
18823;DHT22;9540;51.550;7.980;2023-11-21T13:10:22;8.80;99.90
18823;DHT22;9540;51.550;7.980;2023-11-21T13:12:53;8.80;99.90
18823;DHT22;9540;51.550;7.980;2023-11-21T13:15:20;8.80;99.90
18823;DHT22;9540;51.550;7.980;2023-11-21T13:17:48;8.80;99.90
18823;DHT22;9540;51.550;7.980;2023-11-21T13:20:21;8.80;99.90
18823;DHT22;9540;51.550;7.980;2023-11-21T13:22:51;8.80;99.90
18823;DHT22;9540;51.550;7.980;2023-11-21T13:25:20;8.70;99.90
18823;DHT22;9540;51.550;7.980;2023-11-21T13:27:48;8.70;99.90
18823;DHT22;9540;51.550;7.980;2023-11-21T13:30:16;8.70;99.90
18823;DHT22;9540;51.550;7.980;2023-11-21T13:32:44;8.60;99.90
18823;DHT22;9540;51.550;7.980;2023-11-21T13:35:12;8.60;99.90
18823;DHT22;9540;51.550;7.980;2023-11-21T13:37:51;8.50;99.90
18823;DHT22;9540;51.550;7.980;2023-11-21T13:40:22;8.50;99.90
18823;DHT22;9540;51.550;7.980;2023-11-21T13:42:53;8.50;99.90
18823;DHT22;9540;51.550;7.980;2023-11-21T13:45:21;8.40;99.90
18823;DHT22;9540;51.550;7.980;2023-11-21T13:47:50;8.40;99.90
18823;DHT22;9540;51.550;7.980;2023-11-21T13:50:24;8.40;99.90
18823;DHT22;9540;51.550;7.980;2023-11-21T13:52:58;8.30;99.90
18823;DHT22;9540;51.550;7.980;2023-11-21T13:55:29;8.30;99.90
18823;DHT22;9540;51.550;7.980;2023-11-21T13:57:56;8.20;99.90
18823;DHT22;9540;51.550;7.980;2023-11-21T14:00:24;8.20;99.90
18823;DHT22;9540;51.550;7.980;2023-11-21T14:03:10;8.20;99.90
18823;DHT22;9540;51.550;7.980;2023-11-21T14:05:44;8.20;99.90
18823;DHT22;9540;51.550;7.980;2023-11-21T14:08:14;8.20;99.90
18823;DHT22;9540;51.550;7.980;2023-11-21T14:10:45;8.20;99.90
18823;DHT22;9540;51.550;7.980;2023-11-21T14:13:16;8.20;99.90
18823;DHT22;9540;51.550;7.980;2023-11-21T14:15:43;8.20;99.90
18823;DHT22;9540;51.550;7.980;2023-11-21T14:18:12;8.10;99.90
18823;DHT22;9540;51.550;7.980;2023-11-21T14:20:43;8.10;99.90
18823;DHT22;9540;51.550;7.980;2023-11-21T14:23:10;8.00;99.90
18823;DHT22;9540;51.550;7.980;2023-11-21T14:25:39;8.00;99.90
18823;DHT22;9540;51.550;7.980;2023-11-21T14:28:07;8.00;99.90
18823;DHT22;9540;51.550;7.980;2023-11-21T14:30:37;7.90;99.90
18823;DHT22;9540;51.550;7.980;2023-11-21T14:33:05;7.80;99.90
18823;DHT22;9540;51.550;7.980;2023-11-21T14:35:34;7.80;99.90
18823;DHT22;9540;51.550;7.980;2023-11-21T14:38:01;7.80;99.90
18823;DHT22;9540;51.550;7.980;2023-11-21T14:40:30;7.80;99.90
18823;DHT22;9540;51.550;7.980;2023-11-21T14:43:00;7.80;99.90
18823;DHT22;9540;51.550;7.980;2023-11-21T14:45:31;7.80;99.90
18823;DHT22;9540;51.550;7.980;2023-11-21T14:47:58;7.80;99.90
18823;DHT22;9540;51.550;7.980;2023-11-21T14:50:32;7.70;99.90
18823;DHT22;9540;51.550;7.980;2023-11-21T14:53:45;7.60;99.90
18823;DHT22;9540;51.550;7.980;2023-11-21T14:56:19;7.50;99.90
18823;DHT22;9540;51.550;7.980;2023-11-21T14:58:56;7.50;99.90
18823;DHT22;9540;51.550;7.980;2023-11-21T15:01:26;7.50;99.90
18823;DHT22;9540;51.550;7.980;2023-11-21T15:04:08;7.50;99.90
18823;DHT22;9540;51.550;7.980;2023-11-21T15:06:43;7.50;99.90
18823;DHT22;9540;51.550;7.980;2023-11-21T15:09:10;7.40;99.90
18823;DHT22;9540;51.550;7.980;2023-11-21T15:11:55;7.30;99.90
18823;DHT22;9540;51.550;7.980;2023-11-21T15:14:30;7.30;99.90
18823;DHT22;9540;51.550;7.980;2023-11-21T15:16:57;7.30;99.90
18823;DHT22;9540;51.550;7.980;2023-11-21T15:19:25;7.30;99.90
18823;DHT22;9540;51.550;7.980;2023-11-21T15:21:54;7.30;99.90
18823;DHT22;9540;51.550;7.980;2023-11-21T15:24:22;7.30;99.90
18823;DHT22;9540;51.550;7.980;2023-11-21T15:26:49;7.30;99.90
18823;DHT22;9540;51.550;7.980;2023-11-21T15:29:16;7.30;99.90
18823;DHT22;9540;51.550;7.980;2023-11-21T15:31:45;7.30;99.90
18823;DHT22;9540;51.550;7.980;2023-11-21T15:34:14;7.30;99.90
18823;DHT22;9540;51.550;7.980;2023-11-21T15:36:41;7.30;99.90
18823;DHT22;9540;51.550;7.980;2023-11-21T15:39:08;7.20;99.90
18823;DHT22;9540;51.550;7.980;2023-11-21T15:41:37;7.20;99.90
18823;DHT22;9540;51.550;7.980;2023-11-21T15:44:05;7.10;99.90
18823;DHT22;9540;51.550;7.980;2023-11-21T15:46:35;7.10;99.90
18823;DHT22;9540;51.550;7.980;2023-11-21T15:49:05;7.10;99.90
18823;DHT22;9540;51.550;7.980;2023-11-21T15:51:38;7.10;99.90
18823;DHT22;9540;51.550;7.980;2023-11-21T15:54:06;7.10;99.90
18823;DHT22;9540;51.550;7.980;2023-11-21T15:56:36;7.00;99.90
18823;DHT22;9540;51.550;7.980;2023-11-21T15:59:07;6.90;99.90
18823;DHT22;9540;51.550;7.980;2023-11-21T16:01:36;6.90;99.90
18823;DHT22;9540;51.550;7.980;2023-11-21T16:04:10;6.90;99.90
18823;DHT22;9540;51.550;7.980;2023-11-21T16:06:38;7.00;99.90
18823;DHT22;9540;51.550;7.980;2023-11-21T16:09:07;6.90;99.90
18823;DHT22;9540;51.550;7.980;2023-11-21T16:11:46;6.90;99.90
18823;DHT22;9540;51.550;7.980;2023-11-21T16:14:14;6.80;99.90